Time;durP1;ratioP1;P1;durP2;ratioP2;P2;SDS_P1;SDS_P2;PMS_P1;PMS_P2;Temp;Humidity;BMP_temperature;BMP_pressure;BME280_temperature;BME280_humidity;BME280_pressure;Samples;Min_cycle;Max_cycle;Signal;HPM_P1;HPM_P2
2023/08/02 00:00:00;;;;;;;8.77;4.07;;;;;;;19.88;100.00;-18561.56;5073924;28;1104277;-78
2023/08/02 00:02:25;;;;;;;8.95;3.33;;;;;;;19.86;100.00;-18561.00;5108016;27;20044;-76
2023/08/02 00:04:51;;;;;;;9.63;3.85;;;;;;;19.75;100.00;-18558.16;5107932;27;20035;-76
2023/08/02 00:07:16;;;;;;;9.23;3.47;;;;;;;19.74;100.00;-18557.88;5109050;27;20066;-77
2023/08/02 00:09:41;;;;;;;8.07;3.75;;;;;;;19.74;100.00;-18557.88;5099993;27;20126;-77
2023/08/02 00:12:07;;;;;;;8.15;3.47;;;;;;;19.76;100.00;-18558.41;5109137;27;20046;-77
2023/08/02 00:14:32;;;;;;;8.32;3.88;;;;;;;19.72;100.00;-18557.47;5106684;27;20450;-77
2023/08/02 00:16:58;;;;;;;7.05;3.85;;;;;;;19.75;100.00;-18558.28;5109929;27;20109;-76
2023/08/02 00:19:23;;;;;;;12.80;4.78;;;;;;;19.72;100.00;-18557.34;5107490;27;20142;-79
2023/08/02 00:21:48;;;;;;;9.70;3.50;;;;;;;19.67;100.00;-18555.97;5110666;27;20043;-77
2023/08/02 00:24:14;;;;;;;11.00;4.25;;;;;;;19.66;100.00;-18555.69;5109546;27;20050;-76
2023/08/02 00:26:39;;;;;;;9.68;4.28;;;;;;;19.66;100.00;-18555.69;5106665;28;20070;-78
2023/08/02 00:29:04;;;;;;;13.70;4.93;;;;;;;19.52;100.00;-18552.16;5107166;27;20071;-79
2023/08/02 00:31:30;;;;;;;10.90;4.50;;;;;;;19.49;100.00;-18551.34;5104412;28;20043;-78
2023/08/02 00:33:55;;;;;;;11.38;4.70;;;;;;;19.58;100.00;-18553.66;5108524;27;20044;-80
2023/08/02 00:36:20;;;;;;;10.13;4.38;;;;;;;19.35;100.00;-18547.66;5106115;27;20039;-77
2023/08/02 00:38:46;;;;;;;13.30;4.68;;;;;;;19.30;100.00;-18546.16;5109414;27;20039;-76
2023/08/02 00:41:11;;;;;;;12.60;5.05;;;;;;;19.36;100.00;-18547.78;5105960;28;20036;-78
2023/08/02 00:43:44;;;;;;;13.10;5.22;;;;;;;19.32;100.00;-18546.84;5104369;28;20468;-76
2023/08/02 00:46:14;;;;;;;10.70;4.60;;;;;;;19.30;100.00;-18546.28;5101128;28;20454;-78
2023/08/02 00:48:40;;;;;;;8.38;4.53;;;;;;;19.38;100.00;-18548.47;5106653;28;20082;-80
2023/08/02 00:51:15;;;;;;;11.00;5.05;;;;;;;18.89;100.00;-18535.25;5107363;27;20043;-79
2023/08/02 00:53:44;;;;;;;10.18;5.25;;;;;;;18.88;100.00;-18535.00;5108179;27;20040;-78
2023/08/02 00:56:10;;;;;;;10.15;4.80;;;;;;;18.92;100.00;-18536.22;5105014;27;20078;-77
2023/08/02 00:58:36;;;;;;;9.88;5.05;;;;;;;18.93;100.00;-18536.34;5083626;27;20043;-79
2023/08/02 01:01:07;;;;;;;9.85;4.75;;;;;;;18.89;100.00;-18535.25;5102241;28;20047;-78
2023/08/02 01:03:35;;;;;;;8.73;4.75;;;;;;;18.90;100.00;-18535.66;5086067;28;20073;-79
2023/08/02 01:06:10;;;;;;;11.50;5.20;;;;;;;18.91;100.00;-18535.81;5103942;28;20043;-78
2023/08/02 01:08:38;;;;;;;9.45;4.85;;;;;;;18.74;100.00;-18531.16;5103456;27;20051;-77
2023/08/02 01:11:18;;;;;;;10.25;5.22;;;;;;;18.71;100.00;-18530.63;5106823;27;20464;-78
2023/08/02 01:13:49;;;;;;;13.27;5.25;;;;;;;18.53;100.00;-18525.72;5103123;27;20047;-77
2023/08/02 01:16:15;;;;;;;11.43;5.72;;;;;;;18.48;100.00;-18524.34;5106815;27;20054;-79
2023/08/02 01:18:41;;;;;;;14.18;5.85;;;;;;;18.49;100.00;-18524.75;5104265;27;20604;-78
2023/08/02 01:21:06;;;;;;;8.52;5.55;;;;;;;18.54;100.00;-18525.97;5104456;28;20043;-77
2023/08/02 01:23:34;;;;;;;13.38;6.32;;;;;;;18.54;100.00;-18525.97;5102568;27;20059;-78
2023/08/02 01:26:02;;;;;;;10.18;5.30;;;;;;;18.50;100.00;-18524.91;5104754;28;20042;-77
2023/08/02 01:28:30;;;;;;;7.72;5.28;;;;;;;18.58;100.00;-18527.06;5104016;27;20112;-77
2023/08/02 01:30:55;;;;;;;8.18;5.13;;;;;;;18.51;100.00;-18525.03;5101805;27;20047;-77
2023/08/02 01:33:22;;;;;;;12.35;5.88;;;;;;;18.54;100.00;-18525.97;5104169;27;20495;-78
2023/08/02 01:35:49;;;;;;;11.65;5.38;;;;;;;18.61;100.00;-18527.88;5104419;27;20047;-77
2023/08/02 01:38:14;;;;;;;9.90;5.70;;;;;;;18.60;100.00;-18527.47;5105903;28;20554;-77
2023/08/02 01:40:40;;;;;;;10.20;5.30;;;;;;;18.62;100.00;-18528.16;5104261;28;20038;-78
2023/08/02 01:43:05;;;;;;;12.05;6.18;;;;;;;18.68;100.00;-18529.81;5103792;27;20040;-78
2023/08/02 01:45:30;;;;;;;10.88;5.63;;;;;;;18.67;100.00;-18529.53;5104532;27;20504;-77
2023/08/02 01:47:56;;;;;;;10.52;5.53;;;;;;;18.76;100.00;-18531.72;5101110;28;20042;-77
2023/08/02 01:50:21;;;;;;;12.13;5.78;;;;;;;18.69;100.00;-18530.06;5103662;28;20035;-77
2023/08/02 01:52:49;;;;;;;14.98;6.53;;;;;;;18.76;100.00;-18531.72;5104374;28;20047;-78
2023/08/02 01:55:17;;;;;;;8.70;5.38;;;;;;;18.75;100.00;-18531.56;5104985;28;20499;-79
2023/08/02 01:57:43;;;;;;;10.40;6.05;;;;;;;18.78;100.00;-18532.41;5104730;28;20059;-77
2023/08/02 02:00:09;;;;;;;10.50;5.30;;;;;;;18.70;100.00;-18530.34;5104867;28;20039;-77
2023/08/02 02:02:34;;;;;;;10.93;5.70;;;;;;;18.76;100.00;-18531.72;5105489;28;20043;-77
2023/08/02 02:04:59;;;;;;;11.80;5.60;;;;;;;18.78;100.00;-18532.41;5104016;28;20040;-78
2023/08/02 02:07:25;;;;;;;9.40;5.00;;;;;;;18.72;100.00;-18530.88;5103484;28;20131;-77
2023/08/02 02:09:50;;;;;;;15.95;6.82;;;;;;;18.78;100.00;-18532.41;5105159;28;20176;-77
2023/08/02 02:12:15;;;;;;;12.02;5.45;;;;;;;18.60;100.00;-18527.63;5104242;27;20064;-76
2023/08/02 02:14:41;;;;;;;10.20;5.30;;;;;;;18.66;100.00;-18529.25;5103200;28;20063;-78
2023/08/02 02:17:06;;;;;;;8.68;5.60;;;;;;;18.61;100.00;-18527.88;5105351;28;20043;-76
2023/08/02 02:19:31;;;;;;;9.88;5.45;;;;;;;18.63;100.00;-18528.44;5102881;28;20044;-76
2023/08/02 02:21:57;;;;;;;14.00;5.82;;;;;;;18.72;100.00;-18530.88;5109212;27;20039;-77
2023/08/02 02:24:22;;;;;;;12.07;5.97;;;;;;;18.76;100.00;-18531.84;5102975;28;20046;-76
2023/08/02 02:26:47;;;;;;;9.35;5.50;;;;;;;18.72;100.00;-18530.75;5104378;28;20096;-78
2023/08/02 02:29:13;;;;;;;10.15;5.78;;;;;;;18.74;100.00;-18531.16;5103925;27;20043;-76
2023/08/02 02:31:38;;;;;;;10.25;5.70;;;;;;;18.69;100.00;-18530.06;5103751;28;20056;-76
2023/08/02 02:34:03;;;;;;;11.02;5.13;;;;;;;18.64;100.00;-18528.72;5106094;28;20040;-78
2023/08/02 02:36:29;;;;;;;9.00;5.53;;;;;;;18.73;100.00;-18531.03;5100927;28;20059;-77
2023/08/02 02:38:54;;;;;;;10.32;6.15;;;;;;;18.76;100.00;-18531.72;5105785;28;20066;-77
2023/08/02 02:41:19;;;;;;;10.85;5.22;;;;;;;18.82;100.00;-18533.34;5104013;27;20076;-79
2023/08/02 02:43:45;;;;;;;13.50;6.03;;;;;;;18.83;100.00;-18533.75;5102788;28;20043;-78
2023/08/02 02:46:10;;;;;;;9.15;5.15;;;;;;;19.03;100.00;-18538.94;5104440;28;20047;-78
2023/08/02 02:48:36;;;;;;;12.75;5.60;;;;;;;18.81;100.00;-18533.22;5085107;28;20082;-77
2023/08/02 02:51:01;;;;;;;6.55;5.03;;;;;;;18.67;100.00;-18529.53;5103899;28;20130;-77
2023/08/02 02:53:26;;;;;;;11.00;5.30;;;;;;;18.60;100.00;-18527.63;5104667;27;20035;-78
2023/08/02 02:55:52;;;;;;;10.55;5.65;;;;;;;18.67;100.00;-18529.53;5108970;27;20661;-79
2023/08/02 02:58:17;;;;;;;12.60;5.72;;;;;;;18.46;100.00;-18523.81;5107841;27;20089;-77
2023/08/02 03:00:43;;;;;;;10.45;5.70;;;;;;;18.59;100.00;-18527.22;5108638;27;20035;-77
2023/08/02 03:03:08;;;;;;;9.23;5.78;;;;;;;18.65;100.00;-18528.97;5089836;27;20389;-77
2023/08/02 03:05:34;;;;;;;9.02;5.03;;;;;;;18.52;100.00;-18525.31;5089228;28;20067;-77
2023/08/02 03:07:59;;;;;;;11.80;5.47;;;;;;;18.43;100.00;-18523.13;5105303;27;20044;-77
2023/08/02 03:10:25;;;;;;;9.40;4.82;;;;;;;18.47;100.00;-18524.22;5105382;27;20074;-77
2023/08/02 03:12:50;;;;;;;10.60;5.75;;;;;;;18.48;100.00;-18524.34;5110357;27;20045;-78
2023/08/02 03:15:15;;;;;;;10.80;5.55;;;;;;;18.54;100.00;-18525.84;5108178;27;20647;-75
2023/08/02 03:17:41;;;;;;;8.40;5.10;;;;;;;18.55;100.00;-18526.25;5107892;27;20051;-78
2023/08/02 03:20:07;;;;;;;12.10;5.80;;;;;;;18.69;100.00;-18530.06;5108513;27;20122;-75
2023/08/02 03:22:33;;;;;;;8.65;5.55;;;;;;;18.79;100.00;-18532.66;5087335;27;20050;-77
2023/08/02 03:24:58;;;;;;;9.45;5.13;;;;;;;18.71;100.00;-18530.47;5104784;27;20056;-77
2023/08/02 03:27:23;;;;;;;8.90;5.15;;;;;;;18.68;100.00;-18529.81;5090218;27;20068;-76
2023/08/02 03:29:49;;;;;;;7.55;4.80;;;;;;;18.65;100.00;-18528.97;5092270;28;20051;-77
2023/08/02 03:32:14;;;;;;;14.85;4.88;;;;;;;18.57;100.00;-18526.81;5089886;28;20046;-76
2023/08/02 03:34:40;;;;;;;11.65;4.95;;;;;;;18.60;100.00;-18527.63;5106259;27;20044;-76
2023/08/02 03:37:06;;;;;;;7.65;4.35;;;;;;;18.58;100.00;-18527.06;5107426;27;20043;-76
2023/08/02 03:39:31;;;;;;;10.57;5.30;;;;;;;18.69;100.00;-18529.94;5106932;27;20040;-77
2023/08/02 03:41:56;;;;;;;8.63;4.90;;;;;;;18.68;100.00;-18529.66;5107477;28;20155;-77
2023/08/02 03:44:22;;;;;;;11.60;5.00;;;;;;;18.65;100.00;-18528.84;5107842;27;20039;-78
2023/08/02 03:46:47;;;;;;;7.88;4.57;;;;;;;18.63;100.00;-18528.31;5087675;27;20560;-78
2023/08/02 03:49:13;;;;;;;10.27;5.00;;;;;;;18.60;100.00;-18527.63;5108237;27;20046;-77
2023/08/02 03:51:38;;;;;;;9.05;4.80;;;;;;;18.69;100.00;-18529.94;5104995;27;20135;-77
2023/08/02 03:54:04;;;;;;;8.70;4.90;;;;;;;18.58;100.00;-18527.06;5107242;27;20043;-78
2023/08/02 03:56:29;;;;;;;10.40;5.57;;;;;;;18.60;100.00;-18527.47;5106072;27;20131;-78
2023/08/02 03:58:55;;;;;;;10.27;5.80;;;;;;;18.62;100.00;-18528.16;5107953;27;20073;-76
2023/08/02 04:01:21;;;;;;;10.02;5.15;;;;;;;18.64;100.00;-18528.56;5106739;27;20450;-77
2023/08/02 04:03:46;;;;;;;12.07;5.40;;;;;;;18.71;100.00;-18530.63;5106750;27;20032;-78
2023/08/02 04:06:11;;;;;;;9.90;5.13;;;;;;;18.71;100.00;-18530.47;5083401;27;20035;-78
2023/08/02 04:08:37;;;;;;;11.65;5.28;;;;;;;18.85;100.00;-18534.31;5107668;27;20039;-78
2023/08/02 04:11:04;;;;;;;8.65;5.13;;;;;;;18.89;100.00;-18535.25;5107671;27;20047;-79
2023/08/02 04:13:29;;;;;;;9.48;5.30;;;;;;;18.92;100.00;-18536.06;5105787;27;20427;-76
2023/08/02 04:15:54;;;;;;;9.15;4.97;;;;;;;19.03;100.00;-18539.06;5104347;28;20048;-77
2023/08/02 04:18:20;;;;;;;11.25;5.30;;;;;;;19.02;100.00;-18538.81;5096169;27;20042;-78
2023/08/02 04:20:45;;;;;;;10.30;5.20;;;;;;;19.03;100.00;-18538.94;5105470;27;20038;-76
2023/08/02 04:23:10;;;;;;;12.23;5.72;;;;;;;18.95;100.00;-18536.91;5106170;27;20035;-79
2023/08/02 04:25:36;;;;;;;9.95;4.63;;;;;;;18.84;100.00;-18533.91;5105655;27;20048;-77
2023/08/02 04:28:01;;;;;;;10.90;4.80;;;;;;;18.84;100.00;-18534.03;5108272;27;20159;-77
2023/08/02 04:30:27;;;;;;;10.60;5.15;;;;;;;18.88;100.00;-18535.13;5103983;27;20090;-77
2023/08/02 04:32:53;;;;;;;9.48;4.78;;;;;;;18.95;100.00;-18536.91;5104798;28;20048;-79
2023/08/02 04:35:19;;;;;;;8.55;4.78;;;;;;;18.90;100.00;-18535.53;5103445;27;20042;-77
2023/08/02 04:37:45;;;;;;;8.23;4.63;;;;;;;19.01;100.00;-18538.53;5105790;27;20052;-78
2023/08/02 04:40:11;;;;;;;7.07;4.80;;;;;;;19.02;100.00;-18538.66;5106051;28;20130;-79
2023/08/02 04:42:36;;;;;;;9.95;4.55;;;;;;;19.12;100.00;-18541.53;5104835;27;20114;-78
2023/08/02 04:45:01;;;;;;;8.52;4.70;;;;;;;19.08;100.00;-18540.31;5101934;27;20039;-78
2023/08/02 04:47:27;;;;;;;10.15;4.63;;;;;;;19.13;100.00;-18541.81;5084319;28;20035;-78
2023/08/02 04:49:53;;;;;;;7.95;4.07;;;;;;;19.28;100.00;-18545.75;5102886;28;20052;-78
2023/08/02 04:52:19;;;;;;;7.93;4.45;;;;;;;19.31;100.00;-18546.44;5107497;27;20067;-78
2023/08/02 04:54:44;;;;;;;12.50;4.30;;;;;;;19.22;100.00;-18543.97;5089693;28;20032;-78
2023/08/02 04:57:09;;;;;;;7.47;3.97;;;;;;;19.25;100.00;-18544.78;5102931;27;20131;-78
2023/08/02 04:59:35;;;;;;;11.10;4.53;;;;;;;19.30;100.00;-18546.28;5088397;27;21743;-78
2023/08/02 05:02:00;;;;;;;10.48;4.80;;;;;;;19.26;100.00;-18545.06;5106525;27;20039;-78
2023/08/02 05:04:25;;;;;;;11.23;4.00;;;;;;;19.30;100.00;-18546.16;5080349;27;20155;-79
2023/08/02 05:06:51;;;;;;;9.35;4.28;;;;;;;19.21;100.00;-18543.72;5101995;27;20050;-78
2023/08/02 05:09:17;;;;;;;9.85;4.32;;;;;;;19.37;100.00;-18548.06;5094332;28;20126;-79
2023/08/02 05:11:43;;;;;;;14.10;4.88;;;;;;;19.28;100.00;-18545.63;5104923;27;20039;-78
2023/08/02 05:14:08;;;;;;;14.35;5.22;;;;;;;19.28;100.00;-18545.63;5103663;27;20513;-78
2023/08/02 05:16:35;;;;;;;9.05;4.75;;;;;;;19.21;100.00;-18543.84;5101130;28;20043;-78
2023/08/02 05:19:00;;;;;;;8.32;4.20;;;;;;;19.22;100.00;-18543.97;5104458;27;20059;-78
2023/08/02 05:21:26;;;;;;;6.80;4.10;;;;;;;19.27;100.00;-18545.47;5102062;27;20066;-79
2023/08/02 05:23:51;;;;;;;9.02;3.35;;;;;;;19.20;100.00;-18543.44;5100288;28;20173;-78
2023/08/02 05:26:17;;;;;;;7.35;3.63;;;;;;;19.20;100.00;-18543.44;5100999;27;20031;-78
2023/08/02 05:28:42;;;;;;;10.23;4.38;;;;;;;19.20;100.00;-18543.44;5087131;28;20071;-78
2023/08/02 05:31:11;;;;;;;11.43;4.22;;;;;;;19.32;100.00;-18546.72;5104804;27;20040;-78
2023/08/02 05:33:37;;;;;;;10.05;4.20;;;;;;;19.19;100.00;-18543.31;5081457;27;20039;-79
2023/08/02 05:36:03;;;;;;;8.15;3.80;;;;;;;19.13;100.00;-18541.81;5102911;27;20356;-78
2023/08/02 05:38:30;;;;;;;12.80;4.53;;;;;;;19.17;100.00;-18542.88;5101422;27;20176;-78
2023/08/02 05:40:59;;;;;;;9.13;3.90;;;;;;;19.16;100.00;-18542.63;5108290;27;20491;-79
2023/08/02 05:43:24;;;;;;;10.48;4.45;;;;;;;19.20;100.00;-18543.44;5103591;28;20535;-78
2023/08/02 05:45:53;;;;;;;9.95;4.85;;;;;;;19.27;100.00;-18545.47;5103637;27;20091;-79
2023/08/02 05:48:19;;;;;;;10.82;5.45;;;;;;;19.22;100.00;-18544.13;5102825;28;20127;-79
2023/08/02 05:50:44;;;;;;;11.43;6.10;;;;;;;19.26;100.00;-18545.22;5100153;27;20523;-78
2023/08/02 05:53:09;;;;;;;12.35;5.00;;;;;;;19.26;100.00;-18545.06;5106273;27;20039;-79
2023/08/02 05:55:35;;;;;;;10.65;4.75;;;;;;;19.21;100.00;-18543.72;5091195;28;20491;-78
2023/08/02 05:58:00;;;;;;;12.07;5.05;;;;;;;19.26;100.00;-18545.06;5106452;28;20070;-79
2023/08/02 06:00:25;;;;;;;12.45;5.38;;;;;;;19.53;100.00;-18552.44;5103298;28;20044;-79
2023/08/02 06:02:51;;;;;;;10.63;5.50;;;;;;;19.53;100.00;-18552.28;5105648;28;20499;-80
2023/08/02 06:05:16;;;;;;;7.15;5.00;;;;;;;19.66;100.00;-18555.69;5101662;28;20387;-80
2023/08/02 06:07:41;;;;;;;9.95;5.22;;;;;;;19.46;100.00;-18550.38;5103925;28;20476;-78
2023/08/02 06:10:07;;;;;;;9.60;5.22;;;;;;;19.41;100.00;-18549.03;5110269;28;20499;-79
2023/08/02 06:12:33;;;;;;;12.43;5.80;;;;;;;19.54;100.00;-18552.69;5102793;27;20091;-78
2023/08/02 06:14:58;;;;;;;11.40;6.05;;;;;;;19.60;100.00;-18554.19;5104629;28;20687;-79
2023/08/02 06:17:26;;;;;;;12.98;5.75;;;;;;;19.66;100.00;-18555.84;5100318;28;20063;-79
2023/08/02 06:19:51;;;;;;;10.82;5.53;;;;;;;19.71;100.00;-18557.19;5100213;28;20472;-79
2023/08/02 06:22:17;;;;;;;15.75;6.32;;;;;;;19.68;100.00;-18556.25;5085687;28;20099;-80
2023/08/02 06:24:43;;;;;;;10.05;5.65;;;;;;;19.67;100.00;-18555.97;5088334;28;20043;-80
2023/08/02 06:27:09;;;;;;;11.70;6.15;;;;;;;19.66;100.00;-18555.69;5103595;28;20043;-77
2023/08/02 06:29:35;;;;;;;13.45;6.03;;;;;;;19.63;100.00;-18554.88;5107429;28;20039;-79
2023/08/02 06:32:00;;;;;;;12.20;5.53;;;;;;;19.62;100.00;-18554.75;5106350;28;20100;-78
2023/08/02 06:34:26;;;;;;;13.40;6.50;;;;;;;19.70;100.00;-18556.78;5102717;28;20047;-78
2023/08/02 06:36:51;;;;;;;15.38;6.10;;;;;;;19.74;100.00;-18557.88;5106125;28;20487;-78
2023/08/02 06:39:17;;;;;;;11.98;6.13;;;;;;;19.87;100.00;-18561.41;5108428;28;20583;-80
2023/08/02 06:41:42;;;;;;;15.68;7.00;;;;;;;19.89;100.00;-18561.97;5107321;28;20036;-78
2023/08/02 06:44:07;;;;;;;17.02;7.32;;;;;;;19.86;100.00;-18561.16;5107625;28;20070;-79
2023/08/02 06:46:33;;;;;;;12.65;5.45;;;;;;;19.90;100.00;-18562.22;5105209;28;20478;-79
2023/08/02 06:48:59;;;;;;;11.90;6.40;;;;;;;19.83;100.00;-18560.34;5108395;28;20031;-79
2023/08/02 06:51:24;;;;;;;11.38;5.60;;;;;;;19.78;100.00;-18558.97;5107573;28;20545;-78
2023/08/02 06:53:51;;;;;;;13.13;5.65;;;;;;;19.92;100.00;-18562.78;5107579;28;20509;-78
2023/08/02 06:56:17;;;;;;;13.27;6.00;;;;;;;19.83;100.00;-18560.47;5103615;28;20035;-79
2023/08/02 06:58:43;;;;;;;12.25;5.65;;;;;;;19.88;100.00;-18561.69;5101852;28;20597;-78
2023/08/02 07:01:26;;;;;;;8.48;5.60;;;;;;;19.93;100.00;-18563.06;5106696;28;20036;-79
2023/08/02 07:03:52;;;;;;;13.55;6.15;;;;;;;19.85;100.00;-18560.88;5105323;28;20057;-77
2023/08/02 07:06:19;;;;;;;10.88;5.57;;;;;;;19.87;100.00;-18561.28;5106138;28;20113;-78
2023/08/02 07:08:46;;;;;;;11.15;5.82;;;;;;;19.83;100.00;-18560.34;5107808;28;20506;-78
2023/08/02 07:11:12;;;;;;;10.43;5.85;;;;;;;19.80;100.00;-18559.66;5105965;28;20043;-80
2023/08/02 07:13:42;;;;;;;13.73;6.28;;;;;;;19.92;100.00;-18562.66;5104304;28;20050;-79
2023/08/02 07:16:08;;;;;;;11.10;5.38;;;;;;;19.91;100.00;-18562.50;5103380;28;20032;-80
2023/08/02 07:18:33;;;;;;;11.27;5.97;;;;;;;20.00;100.00;-18564.81;5106432;28;20145;-79
2023/08/02 07:21:06;;;;;;;13.90;6.60;;;;;;;19.72;100.00;-18557.34;5088901;28;20047;-79
2023/08/02 07:23:31;;;;;;;14.13;6.45;;;;;;;19.41;100.00;-18549.16;5102286;28;20159;-79
2023/08/02 07:25:57;;;;;;;11.40;6.43;;;;;;;19.63;100.00;-18555.00;5107066;28;20122;-79
2023/08/02 07:28:22;;;;;;;13.02;5.80;;;;;;;19.65;100.00;-18555.41;5106780;28;20049;-80
2023/08/02 07:30:47;;;;;;;11.02;6.50;;;;;;;19.71;100.00;-18557.19;5104929;28;20058;-78
2023/08/02 07:33:13;;;;;;;13.98;5.85;;;;;;;19.79;100.00;-18559.38;5103930;27;20085;-79
2023/08/02 07:35:38;;;;;;;12.93;7.10;;;;;;;19.82;100.00;-18560.19;5105684;28;20101;-81
2023/08/02 07:38:03;;;;;;;11.05;5.88;;;;;;;19.93;100.00;-18563.06;5105235;28;20580;-79
2023/08/02 07:40:29;;;;;;;10.10;5.60;;;;;;;19.97;100.00;-18564.16;5106393;28;20039;-79
2023/08/02 07:42:54;;;;;;;10.25;5.70;;;;;;;19.94;100.00;-18563.31;5104809;28;20065;-80
2023/08/02 07:45:20;;;;;;;10.57;6.07;;;;;;;20.01;100.00;-18565.22;5107955;28;20043;-79
2023/08/02 07:47:45;;;;;;;9.88;5.95;;;;;;;19.96;100.00;-18563.88;5101648;28;20308;-79
2023/08/02 07:50:11;;;;;;;10.05;6.03;;;;;;;20.03;100.00;-18565.63;5104272;28;20122;-79
2023/08/02 07:52:36;;;;;;;9.02;5.82;;;;;;;19.86;100.00;-18561.16;5105011;28;20666;-80
2023/08/02 07:55:02;;;;;;;11.32;6.63;;;;;;;19.94;100.00;-18563.19;5103537;28;20037;-78
2023/08/02 07:57:31;;;;;;;12.05;5.97;;;;;;;19.59;100.00;-18554.06;5099123;28;20050;-80
2023/08/02 07:59:57;;;;;;;11.30;7.28;;;;;;;19.56;100.00;-18553.25;5099137;28;20066;-79
2023/08/02 08:02:25;;;;;;;10.18;5.97;;;;;;;19.57;100.00;-18553.50;5098574;28;20062;-80
2023/08/02 08:04:51;;;;;;;11.13;7.72;;;;;;;19.73;100.00;-18557.59;5100430;28;20244;-78
2023/08/02 08:07:16;;;;;;;11.60;7.18;;;;;;;19.74;100.00;-18558.00;5105255;28;20068;-79
2023/08/02 08:09:41;;;;;;;11.43;6.60;;;;;;;19.74;100.00;-18557.88;5103118;28;20031;-79
2023/08/02 08:12:07;;;;;;;9.80;7.22;;;;;;;19.76;100.00;-18558.41;5103673;28;20088;-79
2023/08/02 08:14:33;;;;;;;7.72;6.63;;;;;;;19.84;100.00;-18560.59;5099476;28;20671;-79
2023/08/02 08:17:03;;;;;;;10.38;6.60;;;;;;;19.80;100.00;-18559.66;5105999;28;20038;-78
2023/08/02 08:19:33;;;;;;;9.75;6.47;;;;;;;19.83;100.00;-18560.34;5100674;27;20842;-79
2023/08/02 08:22:01;;;;;;;11.15;6.60;;;;;;;19.85;100.00;-18560.88;5075630;28;20039;-80
2023/08/02 08:24:26;;;;;;;8.82;6.95;;;;;;;19.87;100.00;-18561.41;5084940;28;20055;-79
2023/08/02 08:26:55;;;;;;;12.25;7.57;;;;;;;19.94;100.00;-18563.31;5103414;28;20140;-79
2023/08/02 08:29:20;;;;;;;12.40;7.35;;;;;;;19.94;100.00;-18563.19;5103587;28;20035;-79
2023/08/02 08:31:45;;;;;;;10.30;7.05;;;;;;;19.82;100.00;-18560.06;5100045;28;20046;-80
2023/08/02 08:34:13;;;;;;;8.27;6.70;;;;;;;19.77;100.00;-18558.69;5097203;28;20080;-78
2023/08/02 08:36:39;;;;;;;10.90;6.78;;;;;;;19.70;100.00;-18556.78;5092757;28;20054;-79
2023/08/02 08:39:07;;;;;;;11.43;6.60;;;;;;;19.86;100.00;-18561.16;5100464;28;20043;-79
2023/08/02 08:41:32;;;;;;;10.20;7.00;;;;;;;19.95;100.00;-18563.59;5100997;28;20039;-79
2023/08/02 08:44:02;;;;;;;8.82;6.97;;;;;;;19.94;100.00;-18563.19;5101432;28;20270;-80
2023/08/02 08:46:31;;;;;;;9.60;6.90;;;;;;;20.02;100.00;-18565.38;5098684;28;20054;-79
2023/08/02 08:48:58;;;;;;;10.50;6.88;;;;;;;20.02;100.00;-18565.50;5101496;28;20031;-79
2023/08/02 08:51:25;;;;;;;9.60;5.80;;;;;;;19.93;100.00;-18563.06;5100762;28;21071;-79
2023/08/02 08:53:51;;;;;;;8.27;6.25;;;;;;;20.10;100.00;-18567.41;5097234;28;20042;-79
2023/08/02 08:56:22;;;;;;;7.43;6.15;;;;;;;20.08;100.00;-18567.00;5099887;28;20039;-79
2023/08/02 08:58:47;;;;;;;8.25;6.25;;;;;;;20.04;100.00;-18565.91;5098634;28;20525;-79
2023/08/02 09:01:13;;;;;;;10.07;5.93;;;;;;;20.14;100.00;-18568.63;5082080;28;20044;-80
2023/08/02 09:03:38;;;;;;;8.10;6.03;;;;;;;20.23;100.00;-18571.09;5077323;28;20051;-78
2023/08/02 09:06:04;;;;;;;8.73;5.80;;;;;;;20.25;100.00;-18571.63;5094813;28;20043;-78
2023/08/02 09:08:42;;;;;;;8.90;6.45;;;;;;;20.51;100.00;-18578.56;5097267;28;20601;-79
2023/08/02 09:11:07;;;;;;;8.48;5.30;;;;;;;20.67;100.00;-18582.66;5092786;28;20047;-78
2023/08/02 09:13:33;;;;;;;6.97;5.65;;;;;;;20.51;100.00;-18578.44;5097368;28;20038;-78
2023/08/02 09:16:15;;;;;;;10.77;6.05;;;;;;;20.66;100.00;-18582.53;5099591;28;20092;-79
2023/08/02 09:18:42;;;;;;;8.25;5.72;;;;;;;20.69;100.00;-18583.19;5099205;28;20426;-79
2023/08/02 09:21:09;;;;;;;7.65;5.03;;;;;;;20.51;100.00;-18578.44;5100084;28;20036;-79
2023/08/02 09:23:35;;;;;;;9.73;5.55;;;;;;;20.64;100.00;-18581.97;5096476;28;20043;-79
2023/08/02 09:26:10;;;;;;;8.02;5.15;;;;;;;20.35;100.00;-18574.22;5100210;28;20031;-79
2023/08/02 09:28:36;;;;;;;7.38;4.80;;;;;;;20.41;100.00;-18575.72;5099880;28;20122;-79
2023/08/02 09:31:28;;;;;;;6.32;4.65;;;;;;;20.50;100.00;-18578.28;5101032;28;20510;-79
2023/08/02 09:33:55;;;;;;;6.68;5.05;;;;;;;20.75;100.00;-18584.84;5076402;28;20805;-79
2023/08/02 09:36:28;;;;;;;5.40;4.57;;;;;;;20.73;100.00;-18584.28;5095708;28;20044;-79
2023/08/02 09:38:57;;;;;;;6.95;4.97;;;;;;;20.85;100.00;-18587.56;5092219;28;20130;-79
2023/08/02 09:41:24;;;;;;;8.43;4.60;;;;;;;20.66;100.00;-18582.38;5095929;28;20045;-79
2023/08/02 09:43:51;;;;;;;7.78;4.55;;;;;;;20.58;100.00;-18580.34;5094966;28;20048;-79
2023/08/02 09:46:25;;;;;;;8.82;4.93;;;;;;;20.55;100.00;-18579.53;5079829;28;20079;-79
2023/08/02 09:48:51;;;;;;;6.47;5.10;;;;;;;20.51;100.00;-18578.56;5100191;28;20047;-78
2023/08/02 09:51:17;;;;;;;4.82;4.30;;;;;;;20.49;100.00;-18578.03;5101299;28;20629;-79
2023/08/02 09:53:53;;;;;;;5.82;4.80;;;;;;;20.53;100.00;-18578.84;5100629;28;20154;-80
2023/08/02 09:56:31;;;;;;;5.15;4.10;;;;;;;20.51;100.00;-18578.44;5099307;28;20047;-79
2023/08/02 09:58:58;;;;;;;6.80;4.65;;;;;;;20.41;100.00;-18575.72;5101110;28;20100;-79
2023/08/02 10:01:24;;;;;;;5.85;4.70;;;;;;;20.50;100.00;-18578.16;5100081;28;20036;-79
2023/08/02 10:03:55;;;;;;;5.35;4.25;;;;;;;20.62;100.00;-18581.28;5103850;28;20039;-79
2023/08/02 10:06:36;;;;;;;;;;;;;;;;;;;;;
2023/08/02 10:09:05;;;;;;;4.80;4.30;;;;;;;20.62;100.00;-18581.28;5092928;28;20048;-79
2023/08/02 10:11:43;;;;;;;6.40;5.10;;;;;;;20.40;100.00;-18575.56;5104014;28;20047;-79
2023/08/02 10:14:09;;;;;;;7.88;4.90;;;;;;;20.41;100.00;-18575.72;5092778;28;20122;-79
2023/08/02 10:16:37;;;;;;;6.97;5.38;;;;;;;20.68;100.00;-18582.94;5103481;28;20043;-79
2023/08/02 10:19:03;;;;;;;6.15;5.38;;;;;;;20.68;100.00;-18582.94;5102875;28;20040;-79
2023/08/02 10:21:31;;;;;;;9.65;5.85;;;;;;;20.77;100.00;-18585.38;5102841;28;20116;-79
2023/08/02 10:23:58;;;;;;;7.70;6.50;;;;;;;20.84;100.00;-18587.28;5100999;28;20151;-79
2023/08/02 10:26:24;;;;;;;7.43;6.68;;;;;;;20.76;100.00;-18585.09;5103415;28;20038;-79
2023/08/02 10:28:50;;;;;;;8.05;7.03;;;;;;;20.98;100.00;-18590.81;5104785;28;20055;-80
2023/08/02 10:31:17;;;;;;;8.95;7.07;;;;;;;21.02;100.00;-18592.03;5102217;28;20067;-79
2023/08/02 10:33:42;;;;;;;10.25;7.90;;;;;;;21.05;100.00;-18592.72;5102780;28;20044;-79
2023/08/02 10:36:08;;;;;;;9.57;8.05;;;;;;;21.21;100.00;-18597.06;5102975;28;20253;-80
2023/08/02 10:38:40;;;;;;;12.18;9.73;;;;;;;21.34;100.00;-18600.59;5102797;28;20115;-78
2023/08/02 10:41:05;;;;;;;10.38;8.40;;;;;;;21.49;100.00;-18604.56;5104537;28;20054;-80
2023/08/02 10:43:31;;;;;;;10.88;9.68;;;;;;;21.58;100.00;-18606.88;5103498;28;20032;-80
2023/08/02 10:46:17;;;;;;;12.15;10.85;;;;;;;21.89;100.00;-18615.00;5102915;28;20131;-79
2023/08/02 10:48:42;;;;;;;14.45;12.05;;;;;;;21.63;100.00;-18608.22;5104049;28;20043;-79
2023/08/02 10:51:30;;;;;;;13.45;12.05;;;;;;;21.70;100.00;-18610.13;5103824;28;20890;-80
2023/08/02 10:54:19;;;;;;;14.43;12.85;;;;;;;21.77;100.00;-18611.88;5075009;28;20491;-79
2023/08/02 10:56:51;;;;;;;13.52;12.13;;;;;;;21.82;100.00;-18613.25;5103792;28;20131;-79
2023/08/02 10:59:36;;;;;;;12.98;11.57;;;;;;;21.90;100.00;-18615.44;5074506;28;20511;-77
2023/08/02 11:02:08;;;;;;;15.23;13.60;;;;;;;22.20;100.00;-18623.44;5085497;28;20176;-80
2023/08/02 11:04:35;;;;;;;13.95;12.40;;;;;;;22.35;100.00;-18627.38;5078099;28;20044;-79
2023/08/02 11:07:17;;;;;;;12.80;11.48;;;;;;;22.30;100.00;-18626.16;5103152;28;20098;-80
2023/08/02 11:09:43;;;;;;;12.07;10.88;;;;;;;22.23;100.00;-18624.25;5103557;28;20139;-79
2023/08/02 11:12:12;;;;;;;13.18;11.77;;;;;;;22.20;100.00;-18623.44;5107818;28;20114;-77